ADDS METAR Data INFO
IDs: Format: Raw Decoded Include TAF

Data at: 0702 UTC 19 Oct 2017

KONT 190653Z 24003KT 10SM CLR 19/13 A2993 RMK AO2 SLP119 T01940128
KONT 190553Z 22003KT 10SM CLR 21/12 A2993 RMK AO2 SLP119 T02060117 10289 20200 50004
KONT 190453Z 27008KT 10SM CLR 21/11 A2993 RMK AO2 SLP121 T02110106
KONT 190353Z 26007KT 10SM CLR 23/12 A2992 RMK AO2 SLP117 T02280117
KONT 190253Z 25005KT 10SM CLR 24/12 A2991 RMK AO2 SLP116 T02440117 53006
KONT 190153Z 24008KT 10SM FEW120 26/11 A2990 RMK AO2 SLP112 T02560106
KONT 190053Z 25009KT 10SM FEW130 27/12 A2989 RMK AO2 SLP107 T02720122
KONT 182353Z 25012G20KT 10SM FEW130 29/13 A2990 RMK AO2 SLP108 T02890128 10322 20267 56005
KONT 182253Z 26012KT 10SM FEW130 30/11 A2990 RMK AO2 SLP107 T03000111
KONT 182153Z 27010KT 10SM FEW130 32/06 A2990 RMK AO2 SLP106 T03220061
KONT 182053Z 26006KT 10SM FEW140 32/02 A2991 RMK AO2 SLP110 T03220022 58020
KONT 181953Z VRB04KT 10SM FEW140 FEW200 31/01 A2994 RMK AO2 SLP119 T03110006
KONT 181853Z 22004KT 10SM FEW140 FEW200 29/02 A2996 RMK AO2 SLP127 T02890017
KONT 181753Z 22004KT 10SM FEW140 FEW200 27/03 A2997 RMK AO2 SLP132 T02670028 10272 20194 50007
KONT 181653Z 24005KT 10SM FEW150 SCT200 25/04 A2997 RMK AO2 SLP133 T02500044
KONT 181553Z 13003KT 10SM FEW200 SCT250 25/03 A2997 RMK AO2 SLP130 T02500033
KONT 181453Z 00000KT 10SM FEW190 FEW230 19/06 A2995 RMK AO2 SLP127 T01940061 51004
KONT 181353Z 00000KT 10SM SCT190 SCT230 19/05 A2994 RMK AO2 SLP124 T01940050
KONT 181253Z 00000KT 10SM FEW160 BKN240 20/05 A2994 RMK AO2 SLP123 T02000050
KONT 181153Z 05003KT 10SM SCT220 20/04 A2994 RMK AO2 SLP119 T02000044 10239 20189 55003
KONT 181053Z 00000KT 10SM SCT220 21/04 A2993 RMK AO2 SLP117 T02060044
KONT 180953Z 00000KT 10SM SCT180 SCT250 22/04 A2995 RMK AO2 SLP121 T02220039
KONT 180853Z 00000KT 10SM SCT180 SCT250 21/04 A2995 RMK AO2 SLP121 T02110044 58005
KONT 180753Z 00000KT 10SM FEW180 SCT250 22/04 A2995 RMK AO2 SLP121 T02220039 403610156
KONT 180653Z 00000KT 10SM FEW180 SCT250 23/03 A2996 RMK AO2 SLP126 T02280033
KONT 180553Z 00000KT 10SM FEW180 SCT250 24/02 A2996 RMK AO2 SLP127 T02390017 10333 20239 51005
KONT 180453Z VRB04KT 10SM FEW180 SCT250 25/02 A2996 RMK AO2 SLP128 T02500017
KONT 180353Z 00000KT 10SM FEW180 BKN250 27/M02 A2995 RMK AO2 SLP126 T02671022
KONT 180253Z 26005KT 10SM FEW180 BKN250 27/M03 A2995 RMK AO2 SLP126 T02721028 53007
KONT 180153Z 25005KT 10SM FEW180 BKN250 28/01 A2994 RMK AO2 SLP121 T02830006
KONT 180053Z 24008KT 10SM FEW180 BKN250 31/04 A2992 RMK AO2 SLP117 T03060044
KONT 172353Z 28011KT 10SM FEW180 BKN250 33/02 A2992 RMK AO2 SLP115 T03330022 10361 20294 56009
KONT 172253Z 24011KT 10SM FEW180 BKN250 35/M04 A2993 RMK AO2 SLP116 T03501039
KONT 172153Z 27008KT 230V300 10SM SCT200 BKN270 36/M06 A2993 RMK AO2 SLP117 T03561061
KONT 172053Z 24006KT 10SM FEW150 SCT200 BKN270 36/M07 A2995 RMK AO2 SLP124 T03561072 58027
KONT 171953Z VRB05KT 10SM FEW150 SCT270 34/M07 A2998 RMK AO2 SLP133 T03441067